首页
METAR-TAF:

METAR-TAF

机场 :

奥尔巴尼, 紐約州, 美国

纬度: 42-44-53N, 经度: 073-48-06W, 海拔: 87米

当前天气观测

该预报发布于58分钟前的21:51 UTC
风速9节,风向南转南东
温度 29°C
湿度 45%
气压 1014 hPa
能見度: 16.1公里
少量云层高于5000英尺
多云层高于25000英尺

METAR: KALB 262151Z 16009KT 10SM FEW050 BKN250 29/16 A2995 RMK AO2 SLP141 CB DSNT SW AND NW MOV E T02890161

时间: 18:49 (22:49 UTC)

预报

该预报发布于53分钟前的21:56 UTC
预报有效从26日的 22点(UTC)到 27日的 18点(UTC)
风速9节,风向南转南东
能見度: 10公里
少量云层高于5000英尺
多云层高于25000英尺
短暂存在
从 26日的 23点(UTC)到 27日的 01点(UTC)
风速15节,风向西,有时为25节阵风
能見度: 3.2公里
阴天层高于3000英尺, 积雨云.
雷暴, 雨
从 27日的 0100点(UTC)
风速3节,风向多变
能見度: 10公里
散云层高于25000英尺
从 27日的 1700点(UTC)
风速7节,风向西
能見度: 10公里
少量云层高于25000英尺

TAF: KALB 262156Z 2622/2718 16009KT P6SM FEW050 BKN250 TEMPO 2623/2701 27015G25KT 2SM TSRA OVC030CB FM270100 VRB03KT P6SM SCT250 FM271700 28007KT P6SM FEW250

超过4000个机场的气象观测和天气预报(METAR&TAF报告)。

可查询的气象台以黄色和红色小点在地图上表示。

将鼠标移到小点上方,可查看气象台名称。

然后点击查看天气观测和预报。

如需切换地图:点击带黑十字的绿色按钮放大地图;点击带横线的绿色按钮缩小地图;或者点击绿色箭头查看邻近地区的地图。


METAR-TAF: